Time;durP1;ratioP1;P1;durP2;ratioP2;P2;SDS_P1;SDS_P2;PMS_P1;PMS_P2;Temp;Humidity;BMP_temperature;BMP_pressure;BME280_temperature;BME280_humidity;BME280_pressure;Samples;Min_cycle;Max_cycle;Signal;HPM_P1;HPM_P2
2023/08/31 00:01:42;;;;;;;28.17;11.07;;;;;;;29.26;nan;98010.09;4890678;29;20712;-66
2023/08/31 00:04:14;;;;;;;28.90;10.95;;;;;;;29.24;nan;98012.38;4889938;29;20160;-65
2023/08/31 00:06:46;;;;;;;26.60;9.45;;;;;;;29.20;nan;98013.38;4891248;29;20053;-66
2023/08/31 00:09:16;;;;;;;28.70;10.75;;;;;;;29.18;nan;98016.41;4888513;29;20044;-66
2023/08/31 00:11:45;;;;;;;33.35;9.88;;;;;;;29.23;nan;98015.44;4891628;29;20512;-65
2023/08/31 00:14:14;;;;;;;25.50;10.25;;;;;;;29.29;nan;98019.56;4888798;29;20048;-66
2023/08/31 00:16:47;;;;;;;26.38;10.55;;;;;;;29.32;nan;98024.41;4890171;29;20064;-66
2023/08/31 00:19:17;;;;;;;30.45;10.13;;;;;;;29.27;nan;98022.63;4890176;29;20063;-66
2023/08/31 00:21:46;;;;;;;34.97;10.27;;;;;;;29.21;nan;98023.16;4890829;29;20148;-66
2023/08/31 00:24:15;;;;;;;27.08;10.10;;;;;;;29.15;nan;98024.47;4890322;29;20044;-65
2023/08/31 00:26:45;;;;;;;29.55;9.90;;;;;;;29.16;nan;98029.59;4890645;29;20063;-65
2023/08/31 00:29:16;;;;;;;31.75;11.18;;;;;;;29.16;nan;98031.53;4889057;29;20484;-66
2023/08/31 00:31:48;;;;;;;28.20;10.65;;;;;;;29.12;nan;98034.09;4888273;29;20052;-65
2023/08/31 00:34:18;;;;;;;29.60;9.97;;;;;;;29.08;nan;98033.16;4872623;29;20056;-66
2023/08/31 00:36:49;;;;;;;38.03;11.38;;;;;;;29.10;nan;98041.03;4876283;29;20282;-66
2023/08/31 00:39:20;;;;;;;33.67;10.73;;;;;;;29.07;nan;98039.75;4881038;29;20171;-66
2023/08/31 00:41:50;;;;;;;33.78;10.60;;;;;;;29.02;nan;98034.50;4874476;29;20057;-66
2023/08/31 00:44:20;;;;;;;34.63;11.73;;;;;;;28.99;nan;98037.84;4876988;29;20143;-66
2023/08/31 00:46:52;;;;;;;;;;;;;;;29.00;nan;98043.00;4887547;29;20063;-66
2023/08/31 00:49:22;;;;;;;31.52;10.35;;;;;;;28.97;nan;98045.59;4887727;29;19931;-65
2023/08/31 00:51:51;;;;;;;29.85;10.75;;;;;;;28.97;nan;98048.31;4874660;29;20052;-65
2023/08/31 00:54:23;;;;;;;29.65;9.95;;;;;;;28.98;nan;98042.53;4869879;29;20052;-66
2023/08/31 00:56:55;;;;;;;30.00;11.63;;;;;;;28.96;nan;98050.22;4885068;29;20084;-65
2023/08/31 00:59:24;;;;;;;26.60;9.93;;;;;;;28.98;nan;98047.19;4885703;29;20054;-66
2023/08/31 01:02:23;;;;;;;25.27;9.93;;;;;;;28.99;nan;98054.22;4888750;29;20067;-65
2023/08/31 01:05:22;;;;;;;26.45;10.98;;;;;;;29.00;nan;98047.66;4883415;29;20052;-65
2023/08/31 01:08:25;;;;;;;30.20;9.98;;;;;;;29.04;nan;98051.31;4888829;29;20064;-65
2023/08/31 01:11:13;;;;;;;32.97;11.70;;;;;;;29.06;nan;98053.72;4885145;29;20062;-64
2023/08/31 01:13:50;;;;;;;29.85;10.52;;;;;;;29.09;nan;98069.41;4884798;29;20063;-65
2023/08/31 01:16:24;;;;;;;51.83;13.13;;;;;;;29.08;nan;98073.28;4889901;29;20053;-64
2023/08/31 01:18:54;;;;;;;36.78;12.95;;;;;;;29.11;nan;98067.16;4887931;29;20092;-65
2023/08/31 01:21:28;;;;;;;42.40;12.35;;;;;;;29.10;nan;98069.09;4886651;29;20041;-65
2023/08/31 01:23:58;;;;;;;;;;;;;;;29.13;nan;98070.34;4886361;29;20503;-65
2023/08/31 01:26:28;;;;;;;32.30;11.45;;;;;;;29.16;nan;98078.69;4856970;29;20601;-64
2023/08/31 01:28:58;;;;;;;39.53;11.43;;;;;;;29.21;nan;98072.25;4888201;29;20044;-65
2023/08/31 01:31:27;;;;;;;32.42;10.93;;;;;;;29.26;nan;98075.56;4878068;29;20113;-64
2023/08/31 01:33:56;;;;;;;36.35;12.30;;;;;;;29.29;nan;98077.69;4883274;29;20058;-64
2023/08/31 01:36:33;;;;;;;25.67;10.93;;;;;;;29.35;nan;98083.75;4870373;29;20568;-65
2023/08/31 01:39:25;;;;;;;23.38;11.23;;;;;;;29.38;nan;98089.38;4880569;29;20051;-65
2023/08/31 01:42:02;;;;;;;35.95;11.13;;;;;;;29.46;nan;98084.97;4867394;29;20048;-65
2023/08/31 01:44:34;;;;;;;27.60;12.18;;;;;;;29.52;nan;98089.09;4862328;29;20049;-65
2023/08/31 01:47:06;;;;;;;27.42;12.18;;;;;;;29.57;nan;98090.84;4863401;29;20060;-65
2023/08/31 01:49:39;;;;;;;31.58;11.65;;;;;;;29.68;nan;98097.50;4880838;29;20056;-65
2023/08/31 01:52:09;;;;;;;40.83;11.55;;;;;;;29.74;nan;98102.44;4869894;29;20057;-65
2023/08/31 01:54:38;;;;;;;33.85;10.82;;;;;;;29.88;nan;98097.53;4885275;29;20059;-65
2023/08/31 01:57:07;;;;;;;33.60;12.43;;;;;;;29.98;nan;98095.53;4871345;29;20064;-65
2023/08/31 01:59:56;;;;;;;36.17;11.20;;;;;;;30.07;nan;98102.53;4870822;29;20148;-65
2023/08/31 02:02:26;;;;;;;32.72;9.65;;;;;;;30.15;nan;98100.84;4861855;29;20059;-65
2023/08/31 02:04:56;;;;;;;27.05;9.45;;;;;;;30.31;nan;98099.91;4887114;29;20063;-65
2023/08/31 02:07:25;;;;;;;37.88;11.35;;;;;;;30.34;nan;98110.19;4861940;29;20055;-65
2023/08/31 02:09:55;;;;;;;28.98;10.75;;;;;;;30.50;nan;98110.34;4878426;29;20486;-66
2023/08/31 02:12:25;;;;;;;28.63;11.27;;;;;;;30.55;nan;98104.69;4860302;29;20053;-66
2023/08/31 02:14:54;;;;;;;33.53;11.35;;;;;;;30.63;nan;98111.19;4877400;29;20521;-65
2023/08/31 02:17:23;;;;;;;26.42;10.15;;;;;;;30.68;nan;98116.44;4871677;29;20537;-65
2023/08/31 02:19:53;;;;;;;38.42;12.07;;;;;;;30.83;nan;98113.06;4868878;29;20049;-65
2023/08/31 02:22:23;;;;;;;36.75;10.88;;;;;;;31.06;nan;98117.00;4871713;29;20676;-66
2023/08/31 02:24:52;;;;;;;32.13;11.07;;;;;;;31.35;nan;98115.19;4868037;29;20056;-65
2023/08/31 02:27:21;;;;;;;38.25;12.02;;;;;;;31.51;nan;98116.88;4870404;29;20063;-65
2023/08/31 02:29:50;;;;;;;44.40;10.73;;;;;;;31.57;nan;98126.50;4866581;29;20055;-65
2023/08/31 02:32:20;;;;;;;39.08;12.15;;;;;;;31.65;nan;98119.28;4889069;29;20052;-65
2023/08/31 02:34:50;;;;;;;33.15;11.48;;;;;;;31.69;nan;98122.16;4873099;29;20052;-65
2023/08/31 02:37:19;;;;;;;30.33;11.13;;;;;;;31.81;nan;98122.94;4895101;29;20114;-65
2023/08/31 02:39:50;;;;;;;31.65;11.13;;;;;;;31.91;nan;98122.44;4892071;29;20062;-65
2023/08/31 02:42:19;;;;;;;28.52;9.40;;;;;;;31.94;nan;98126.44;4891553;29;20160;-66
2023/08/31 02:44:53;;;;;;;37.03;11.68;;;;;;;32.00;nan;98133.25;4892851;29;20052;-65
2023/08/31 02:47:23;;;;;;;35.38;11.35;;;;;;;32.01;nan;98135.66;4889937;29;20149;-65
2023/08/31 02:49:52;;;;;;;33.40;10.60;;;;;;;32.12;nan;98132.47;4892000;29;20060;-65
2023/08/31 02:52:22;;;;;;;36.20;10.60;;;;;;;32.08;nan;98135.88;4890713;29;20048;-65
2023/08/31 02:54:51;;;;;;;30.27;11.88;;;;;;;32.07;nan;98137.03;4874498;29;20052;-66
2023/08/31 02:57:21;;;;;;;43.08;11.98;;;;;;;32.09;nan;98133.94;4875037;29;20079;-66
2023/08/31 02:59:51;;;;;;;42.30;12.27;;;;;;;32.17;nan;98138.50;4891516;29;20385;-65
2023/08/31 03:02:21;;;;;;;43.55;12.23;;;;;;;32.25;nan;98145.00;4889816;29;20303;-65
2023/08/31 03:04:51;;;;;;;37.30;12.93;;;;;;;32.20;nan;98139.75;4869370;29;20056;-65
2023/08/31 03:07:20;;;;;;;38.55;11.75;;;;;;;32.23;nan;98148.06;4875113;29;20636;-63
2023/08/31 03:09:50;;;;;;;32.08;12.45;;;;;;;32.28;nan;98152.50;4895514;29;20037;-66
2023/08/31 03:12:20;;;;;;;36.85;12.50;;;;;;;32.39;nan;98150.88;4873893;29;20062;-65
2023/08/31 03:14:50;;;;;;;34.80;10.68;;;;;;;32.39;nan;98159.91;4892446;29;20147;-65
2023/08/31 03:17:19;;;;;;;42.50;12.50;;;;;;;32.46;nan;98153.81;4891277;29;20056;-65
2023/08/31 03:19:49;;;;;;;30.83;11.40;;;;;;;32.54;nan;98150.13;4891411;29;20188;-66
2023/08/31 03:22:18;;;;;;;34.50;10.32;;;;;;;32.55;nan;98157.19;4873630;29;20049;-65
2023/08/31 03:24:47;;;;;;;33.28;10.32;;;;;;;32.67;nan;98167.34;4879064;29;20155;-65
2023/08/31 03:27:17;;;;;;;30.52;10.10;;;;;;;32.67;nan;98161.84;4872455;29;20057;-65
2023/08/31 03:29:46;;;;;;;27.48;9.73;;;;;;;32.79;nan;98167.28;4885851;29;20056;-65
2023/08/31 03:32:16;;;;;;;26.15;9.05;;;;;;;32.88;nan;98173.41;4884244;29;20147;-65
2023/08/31 03:34:45;;;;;;;31.35;10.65;;;;;;;32.89;nan;98172.25;4891218;29;20112;-65
2023/08/31 03:37:14;;;;;;;40.85;9.63;;;;;;;32.82;nan;98172.88;4893498;29;20381;-65
2023/08/31 03:39:43;;;;;;;33.30;9.93;;;;;;;32.86;nan;98171.00;4887380;29;20637;-66
2023/08/31 03:42:13;;;;;;;33.85;10.27;;;;;;;32.88;nan;98182.41;4891131;29;20167;-65
2023/08/31 03:44:42;;;;;;;26.27;8.63;;;;;;;32.94;nan;98174.75;4891555;29;20069;-66
2023/08/31 03:47:11;;;;;;;29.42;8.90;;;;;;;33.00;nan;98180.78;4873569;29;20127;-65
2023/08/31 03:49:40;;;;;;;31.02;8.82;;;;;;;33.10;nan;98183.81;4875398;29;20188;-66
2023/08/31 03:52:10;;;;;;;22.10;7.88;;;;;;;33.11;nan;98184.56;4891055;29;20053;-66
2023/08/31 03:54:39;;;;;;;27.13;7.68;;;;;;;33.10;nan;98183.00;4891893;29;20052;-65
2023/08/31 03:57:09;;;;;;;28.25;8.32;;;;;;;33.08;nan;98188.03;4889979;29;20052;-65
2023/08/31 03:59:39;;;;;;;38.85;9.63;;;;;;;33.09;nan;98189.63;4890609;29;20056;-66
2023/08/31 04:02:08;;;;;;;27.70;9.18;;;;;;;33.22;nan;98197.47;4887981;29;20067;-66
2023/08/31 04:04:37;;;;;;;31.23;8.27;;;;;;;33.33;nan;98194.97;4875187;29;20116;-66
2023/08/31 04:07:07;;;;;;;28.10;9.85;;;;;;;33.26;nan;98194.81;4891249;29;20055;-65
2023/08/31 04:09:39;;;;;;;31.23;8.82;;;;;;;33.19;nan;98194.66;4896125;29;20064;-65
2023/08/31 04:12:09;;;;;;;31.77;8.82;;;;;;;33.38;nan;98198.25;4870187;29;20548;-65
2023/08/31 04:14:39;;;;;;;26.65;8.32;;;;;;;33.47;nan;98203.56;4861471;29;20128;-65
2023/08/31 04:17:08;;;;;;;27.92;9.27;;;;;;;33.30;nan;98207.47;4870375;29;20049;-65
2023/08/31 04:19:40;;;;;;;26.85;8.90;;;;;;;33.37;nan;98206.88;4872105;29;20151;-65
2023/08/31 04:22:14;;;;;;;33.67;10.18;;;;;;;33.40;nan;98206.16;4882173;29;20053;-65
2023/08/31 04:24:43;;;;;;;32.67;9.82;;;;;;;33.48;nan;98210.66;4889117;29;20053;-67
2023/08/31 04:27:13;;;;;;;30.73;8.40;;;;;;;33.56;nan;98214.38;4884301;29;20088;-66
2023/08/31 04:29:42;;;;;;;32.88;9.50;;;;;;;33.65;nan;98210.31;4889539;29;20071;-65
2023/08/31 04:32:11;;;;;;;24.67;7.88;;;;;;;33.75;nan;98217.25;4889622;29;20068;-65
2023/08/31 04:34:40;;;;;;;19.90;6.15;;;;;;;33.72;nan;98210.53;4888144;29;20056;-65
2023/08/31 04:37:09;;;;;;;22.08;6.25;;;;;;;33.64;nan;98216.94;4886812;29;20048;-66
2023/08/31 04:39:38;;;;;;;18.95;5.10;;;;;;;33.83;nan;98221.75;4889316;29;20473;-66
2023/08/31 04:42:08;;;;;;;22.15;6.20;;;;;;;33.99;nan;98210.75;4887598;29;20477;-66
2023/08/31 04:44:37;;;;;;;25.50;7.45;;;;;;;34.17;nan;98220.19;4889337;29;20056;-66
2023/08/31 04:47:07;;;;;;;28.35;7.38;;;;;;;34.39;nan;98210.47;4889480;29;20143;-66
2023/08/31 04:49:36;;;;;;;25.02;6.13;;;;;;;34.71;nan;98223.72;4889203;29;20665;-66
2023/08/31 04:52:06;;;;;;;29.35;6.00;;;;;;;34.80;nan;98226.25;4887808;29;20063;-66
2023/08/31 04:54:36;;;;;;;25.48;7.43;;;;;;;35.08;nan;98226.00;4888984;29;20048;-67
2023/08/31 04:57:07;;;;;;;23.13;6.40;;;;;;;35.44;nan;98228.28;4883556;29;20474;-67
2023/08/31 04:59:36;;;;;;;20.77;6.57;;;;;;;35.27;nan;98219.69;4884587;29;20048;-67
2023/08/31 05:02:06;;;;;;;22.63;5.57;;;;;;;35.38;nan;98220.66;4888611;29;20737;-67
2023/08/31 05:04:35;;;;;;;17.73;5.72;;;;;;;35.97;nan;98220.88;4886979;29;20064;-67
2023/08/31 05:07:07;;;;;;;37.03;7.68;;;;;;;36.06;nan;98220.59;4883226;29;20053;-68
2023/08/31 05:09:39;;;;;;;23.40;7.40;;;;;;;35.94;nan;98220.81;4888651;29;20055;-67
2023/08/31 05:12:11;;;;;;;28.70;6.30;;;;;;;36.22;nan;98224.00;4884534;29;20064;-66
2023/08/31 05:14:40;;;;;;;26.90;7.65;;;;;;;36.39;nan;98222.66;4877826;29;20367;-66
2023/08/31 05:17:09;;;;;;;20.98;6.50;;;;;;;36.60;nan;98222.97;4879476;29;20060;-66
2023/08/31 05:19:39;;;;;;;25.55;6.47;;;;;;;37.13;nan;98223.59;4885860;29;20068;-66
2023/08/31 05:22:08;;;;;;;27.02;6.80;;;;;;;37.05;nan;98221.06;4884382;29;20388;-66
2023/08/31 05:24:38;;;;;;;23.52;8.38;;;;;;;37.08;nan;98212.88;4886461;29;20052;-65
2023/08/31 05:27:07;;;;;;;31.05;7.45;;;;;;;37.05;nan;98221.88;4883222;29;20052;-66
2023/08/31 05:29:36;;;;;;;25.17;7.70;;;;;;;37.17;nan;98218.91;4888208;29;20517;-67
2023/08/31 05:32:06;;;;;;;25.20;7.28;;;;;;;37.26;nan;98227.66;4888626;29;20084;-66
2023/08/31 05:34:39;;;;;;;32.35;7.97;;;;;;;37.48;nan;98223.13;4884754;29;20068;-66
2023/08/31 05:37:08;;;;;;;;;;;;;;;37.20;nan;98220.88;4885018;29;20044;-66
2023/08/31 05:39:37;;;;;;;24.42;6.68;;;;;;;37.20;nan;98220.09;4877395;29;19927;-65
2023/08/31 05:42:07;;;;;;;21.48;6.32;;;;;;;37.38;nan;98229.34;4882423;29;20053;-64
2023/08/31 05:44:36;;;;;;;28.95;6.78;;;;;;;37.27;nan;98233.97;4874280;29;20067;-65
2023/08/31 05:47:06;;;;;;;16.35;6.00;;;;;;;37.61;nan;98229.19;4876146;29;20134;-64
2023/08/31 05:49:35;;;;;;;22.13;5.95;;;;;;;37.26;nan;98224.91;4882057;29;20044;-64
2023/08/31 05:52:05;;;;;;;33.72;7.68;;;;;;;36.77;nan;98216.88;4879227;29;20053;-65
2023/08/31 05:54:34;;;;;;;25.88;6.78;;;;;;;37.00;nan;98218.69;4877621;29;20629;-65
2023/08/31 05:57:05;;;;;;;23.38;6.30;;;;;;;37.55;nan;98214.13;4877647;29;20052;-66
2023/08/31 05:59:34;;;;;;;19.05;5.78;;;;;;;37.10;nan;98215.25;4883185;29;20127;-65
2023/08/31 06:02:05;;;;;;;25.55;6.38;;;;;;;37.37;nan;98211.16;4872290;29;20053;-65
2023/08/31 06:04:37;;;;;;;19.77;6.20;;;;;;;37.43;nan;98212.41;4869751;29;20481;-65
2023/08/31 06:07:08;;;;;;;30.23;7.50;;;;;;;37.29;nan;98202.03;4873801;29;20045;-66
2023/08/31 06:09:38;;;;;;;20.25;5.95;;;;;;;37.36;nan;98198.53;4874502;29;20160;-66
2023/08/31 06:12:07;;;;;;;25.13;6.03;;;;;;;37.58;nan;98199.53;4870699;29;20063;-66
2023/08/31 06:14:37;;;;;;;21.35;6.72;;;;;;;37.47;nan;98199.41;4882194;29;20491;-65
2023/08/31 06:17:08;;;;;;;25.40;5.85;;;;;;;37.64;nan;98200.75;4875111;29;20105;-65
2023/08/31 06:19:38;;;;;;;31.42;7.15;;;;;;;37.34;nan;98195.38;4883508;29;20188;-65
2023/08/31 06:22:07;;;;;;;24.08;6.03;;;;;;;37.14;nan;98196.75;4886738;29;20414;-65
2023/08/31 06:24:36;;;;;;;18.35;5.90;;;;;;;37.00;nan;98199.34;4888131;29;20056;-64
2023/08/31 06:27:06;;;;;;;27.52;6.15;;;;;;;36.89;nan;98191.75;4876403;29;20484;-65
2023/08/31 06:29:35;;;;;;;20.52;5.80;;;;;;;37.10;nan;98193.94;4866044;29;20075;-66
2023/08/31 06:32:05;;;;;;;22.52;6.43;;;;;;;36.99;nan;98193.03;4879329;29;20090;-66
2023/08/31 06:34:35;;;;;;;19.38;5.95;;;;;;;36.88;nan;98197.63;4882495;29;20060;-67
2023/08/31 06:37:07;;;;;;;30.92;6.60;;;;;;;36.81;nan;98200.34;4863240;29;20479;-67
2023/08/31 06:39:36;;;;;;;26.10;6.35;;;;;;;36.87;nan;98196.03;4867550;29;20168;-67
2023/08/31 06:42:06;;;;;;;27.17;6.05;;;;;;;36.88;nan;98195.66;4884054;29;20052;-67
2023/08/31 06:44:38;;;;;;;;;;;;;;;37.03;nan;98191.09;4866245;29;20060;-65
2023/08/31 06:47:07;;;;;;;23.95;5.88;;;;;;;36.75;nan;98183.31;4870370;29;19939;-66
2023/08/31 06:49:36;;;;;;;21.52;5.43;;;;;;;36.89;nan;98197.28;4887892;29;20056;-65
2023/08/31 06:52:09;;;;;;;26.95;6.13;;;;;;;36.92;nan;98185.47;4882663;29;20059;-66
2023/08/31 06:54:56;;;;;;;19.42;6.15;;;;;;;37.15;nan;98185.31;4874250;29;20678;-68
2023/08/31 06:57:27;;;;;;;27.42;7.43;;;;;;;36.73;nan;98182.09;4879941;29;20835;-65
2023/08/31 06:59:56;;;;;;;23.80;5.45;;;;;;;36.64;nan;98176.88;4880750;29;20151;-67
2023/08/31 07:02:28;;;;;;;25.50;6.10;;;;;;;36.57;nan;98176.75;4880262;29;20147;-66
2023/08/31 07:04:58;;;;;;;27.35;6.18;;;;;;;36.60;nan;98181.56;4878299;29;20059;-65
2023/08/31 07:07:28;;;;;;;28.20;6.55;;;;;;;36.57;nan;98174.00;4885070;29;20073;-67
2023/08/31 07:09:57;;;;;;;26.13;6.22;;;;;;;36.69;nan;98175.75;4897704;29;20063;-67
2023/08/31 07:12:26;;;;;;;21.95;6.38;;;;;;;36.73;nan;98176.59;4883618;29;20081;-67
2023/08/31 07:14:56;;;;;;;22.38;6.57;;;;;;;36.62;nan;98170.13;4881540;29;20829;-65
2023/08/31 07:17:25;;;;;;;29.75;6.75;;;;;;;36.77;nan;98177.41;4877117;29;20060;-65
2023/08/31 07:19:54;;;;;;;28.40;6.30;;;;;;;36.71;nan;98168.66;4880671;29;20636;-65
2023/08/31 07:22:24;;;;;;;27.52;5.90;;;;;;;36.62;nan;98170.13;4880358;29;20060;-64
2023/08/31 07:24:53;;;;;;;27.27;8.50;;;;;;;36.67;nan;98161.53;4884150;29;20044;-64
2023/08/31 07:27:22;;;;;;;33.35;6.70;;;;;;;36.53;nan;98155.81;4880418;29;20168;-64
2023/08/31 07:29:54;;;;;;;34.13;7.07;;;;;;;36.50;nan;98156.56;4879036;29;20177;-64
2023/08/31 07:32:26;;;;;;;30.40;7.60;;;;;;;36.47;nan;98149.81;4882696;29;20457;-64
2023/08/31 07:34:56;;;;;;;33.10;6.32;;;;;;;36.48;nan;98143.94;4882439;29;20279;-64
2023/08/31 07:37:26;;;;;;;26.08;7.78;;;;;;;36.52;nan;98141.22;4880894;29;20496;-65
2023/08/31 07:39:55;;;;;;;28.17;7.10;;;;;;;36.64;nan;98149.28;4883009;29;20052;-67
2023/08/31 07:42:25;;;;;;;36.22;7.03;;;;;;;36.72;nan;98150.94;4878869;29;20128;-65
2023/08/31 07:44:54;;;;;;;30.08;7.15;;;;;;;36.47;nan;98139.59;4886433;29;20222;-66
2023/08/31 07:47:23;;;;;;;35.40;7.13;;;;;;;36.59;nan;98135.81;4888773;29;20738;-64
2023/08/31 07:49:53;;;;;;;27.83;6.30;;;;;;;36.64;nan;98145.72;4882940;29;20161;-64
2023/08/31 07:52:23;;;;;;;18.80;6.03;;;;;;;36.71;nan;98134.75;4885477;29;20054;-66
2023/08/31 07:54:53;;;;;;;27.88;7.10;;;;;;;36.52;nan;98132.13;4884363;29;20575;-67
2023/08/31 07:57:24;;;;;;;22.00;6.32;;;;;;;36.36;nan;98127.66;4884977;29;20110;-66
2023/08/31 07:59:53;;;;;;;31.00;6.50;;;;;;;36.34;nan;98124.47;4882507;29;20414;-67
2023/08/31 08:02:23;;;;;;;22.30;6.10;;;;;;;36.32;nan;98131.53;4881774;29;20143;-65
2023/08/31 08:04:52;;;;;;;25.30;6.03;;;;;;;36.23;nan;98131.81;4884571;29;20608;-66
2023/08/31 08:07:22;;;;;;;33.60;7.78;;;;;;;36.40;nan;98130.44;4883153;29;20067;-66
2023/08/31 08:09:51;;;;;;;20.08;7.18;;;;;;;36.20;nan;98120.75;4885915;29;20139;-65
2023/08/31 08:12:21;;;;;;;22.67;5.78;;;;;;;36.17;nan;98121.50;4879218;29;20049;-65
2023/08/31 08:14:50;;;;;;;19.17;6.25;;;;;;;36.10;nan;98122.19;4881814;29;20145;-67
2023/08/31 08:17:20;;;;;;;27.98;6.22;;;;;;;36.03;nan;98122.88;4871503;29;20056;-67
2023/08/31 08:19:49;;;;;;;21.60;6.18;;;;;;;35.75;nan;98121.69;4886109;29;20660;-67
2023/08/31 08:22:18;;;;;;;32.92;7.15;;;;;;;35.65;nan;98116.81;4886568;29;20469;-66
2023/08/31 08:24:48;;;;;;;19.67;6.22;;;;;;;35.55;nan;98110.75;4886945;29;20529;-67
2023/08/31 08:27:18;;;;;;;25.48;5.93;;;;;;;35.84;nan;98114.75;4878079;29;20533;-67
2023/08/31 08:29:48;;;;;;;26.50;6.65;;;;;;;36.02;nan;98107.50;4885544;29;20069;-67
2023/08/31 08:32:17;;;;;;;28.92;6.78;;;;;;;36.11;nan;98117.47;4884423;29;20072;-67
2023/08/31 08:34:46;;;;;;;29.55;6.30;;;;;;;36.02;nan;98106.72;4886405;29;20076;-67
2023/08/31 08:37:16;;;;;;;36.80;7.78;;;;;;;35.99;nan;98104.69;4886733;29;20052;-67
2023/08/31 08:39:50;;;;;;;23.75;6.30;;;;;;;36.14;nan;98097.44;4885976;29;20059;-67
2023/08/31 08:42:25;;;;;;;25.40;6.38;;;;;;;36.20;nan;98098.69;4882972;29;20064;-68
2023/08/31 08:44:57;;;;;;;29.23;5.75;;;;;;;36.10;nan;98089.09;4886122;29;20361;-66
2023/08/31 08:47:27;;;;;;;31.13;5.93;;;;;;;36.02;nan;98087.41;4879888;29;20140;-65
2023/08/31 08:49:59;;;;;;;23.77;6.13;;;;;;;35.97;nan;98084.97;4883493;29;20054;-65
2023/08/31 08:52:30;;;;;;;21.15;5.97;;;;;;;35.85;nan;98082.47;4881947;29;20066;-66
2023/08/31 08:55:02;;;;;;;29.38;6.35;;;;;;;35.94;nan;98074.69;4880598;29;20132;-67
2023/08/31 08:57:32;;;;;;;26.40;6.57;;;;;;;35.93;nan;98071.16;4879492;29;20200;-66
2023/08/31 09:00:03;;;;;;;28.50;6.13;;;;;;;35.94;nan;98071.94;4878968;29;20746;-67
2023/08/31 09:02:32;;;;;;;29.63;6.72;;;;;;;35.94;nan;98063.66;4880612;29;20096;-65
2023/08/31 09:05:02;;;;;;;19.63;5.60;;;;;;;35.98;nan;98064.53;4881999;29;20056;-65
2023/08/31 09:07:39;;;;;;;21.27;5.95;;;;;;;35.96;nan;98061.34;4882594;29;20056;-66
2023/08/31 09:10:09;;;;;;;26.48;7.57;;;;;;;35.92;nan;98060.50;4882407;29;20048;-65
2023/08/31 09:12:39;;;;;;;26.27;5.78;;;;;;;35.75;nan;98061.06;4878857;29;20173;-68
2023/08/31 09:15:09;;;;;;;24.02;6.25;;;;;;;35.49;nan;98057.16;4877590;29;20051;-65
2023/08/31 09:17:47;;;;;;;20.30;6.22;;;;;;;35.30;nan;98043.50;4882968;29;20059;-65
2023/08/31 09:20:16;;;;;;;26.00;5.53;;;;;;;35.21;nan;98048.47;4871984;29;20057;-66
2023/08/31 09:22:46;;;;;;;23.45;6.20;;;;;;;35.19;nan;98039.78;4877383;29;20052;-66
2023/08/31 09:25:16;;;;;;;25.50;7.05;;;;;;;35.23;nan;98035.09;4873433;29;20119;-64
2023/08/31 09:27:45;;;;;;;27.13;6.40;;;;;;;35.38;nan;98036.13;4882306;29;20057;-66
2023/08/31 09:30:15;;;;;;;22.90;6.25;;;;;;;35.49;nan;98043.38;4877052;29;20076;-66
2023/08/31 09:32:53;;;;;;;22.83;6.68;;;;;;;35.58;nan;98032.84;4880252;29;20049;-66
2023/08/31 09:35:22;;;;;;;29.77;6.72;;;;;;;35.59;nan;98028.94;4877414;29;20481;-67
2023/08/31 09:37:57;;;;;;;25.92;7.10;;;;;;;35.68;nan;98022.38;4877242;29;20055;-66
2023/08/31 09:40:26;;;;;;;26.27;6.60;;;;;;;35.80;nan;98028.47;4878541;29;20158;-67
2023/08/31 09:42:56;;;;;;;31.55;6.78;;;;;;;35.81;nan;98023.72;4880758;29;20055;-66
2023/08/31 09:45:31;;;;;;;29.65;6.68;;;;;;;35.89;nan;98026.19;4879550;29;20143;-66
2023/08/31 09:48:05;;;;;;;27.15;6.60;;;;;;;35.82;nan;98023.34;4876888;29;20045;-66
2023/08/31 09:50:38;;;;;;;27.65;6.13;;;;;;;35.79;nan;98020.56;4862457;29;20055;-66
2023/08/31 09:53:10;;;;;;;29.98;6.88;;;;;;;35.63;nan;98011.69;4871141;29;20045;-68
2023/08/31 09:55:44;;;;;;;23.45;5.93;;;;;;;35.50;nan;98011.88;4875393;29;20056;-67
2023/08/31 09:58:22;;;;;;;28.75;6.78;;;;;;;35.55;nan;98008.03;4871467;29;20119;-69
2023/08/31 10:00:53;;;;;;;25.80;5.22;;;;;;;35.62;nan;98001.81;4879219;29;20044;-65
2023/08/31 10:03:26;;;;;;;35.30;6.10;;;;;;;35.69;nan;98011.00;4881985;29;20543;-67
2023/08/31 10:05:56;;;;;;;39.15;8.30;;;;;;;35.70;nan;97998.00;4879692;29;20064;-67
2023/08/31 10:08:31;;;;;;;23.55;6.70;;;;;;;35.67;nan;98007.84;4879934;29;20048;-67
2023/08/31 10:11:04;;;;;;;22.58;6.63;;;;;;;35.68;nan;98003.09;4876947;29;20137;-65
2023/08/31 10:13:36;;;;;;;20.38;6.90;;;;;;;35.69;nan;98002.72;4883121;29;20061;-64
2023/08/31 10:16:06;;;;;;;33.30;7.63;;;;;;;35.60;nan;97994.72;4885291;29;20059;-63
2023/08/31 10:18:36;;;;;;;34.97;6.30;;;;;;;35.66;nan;97997.19;4880037;29;20686;-64
2023/08/31 10:21:06;;;;;;;20.55;5.55;;;;;;;35.66;nan;97997.19;4878599;29;20072;-64
2023/08/31 10:23:35;;;;;;;24.67;7.15;;;;;;;35.58;nan;97991.53;4878097;29;20131;-64
2023/08/31 10:26:09;;;;;;;24.35;5.97;;;;;;;35.56;nan;97993.09;4873611;29;20374;-65
2023/08/31 10:28:41;;;;;;;27.10;6.35;;;;;;;35.59;nan;97986.81;4880631;29;20053;-66
2023/08/31 10:31:20;;;;;;;37.47;7.22;;;;;;;35.52;nan;97982.03;4884160;29;20049;-66
2023/08/31 10:34:05;;;;;;;29.17;6.35;;;;;;;35.54;nan;97987.94;4885091;29;20063;-67
2023/08/31 10:36:43;;;;;;;25.08;7.05;;;;;;;35.56;nan;97991.13;4879455;29;20441;-67
2023/08/31 10:39:17;;;;;;;28.33;6.53;;;;;;;35.54;nan;97985.19;4885403;29;20052;-67
2023/08/31 10:41:55;;;;;;;20.48;5.20;;;;;;;35.42;nan;97984.63;4876244;29;20048;-68
2023/08/31 10:44:28;;;;;;;30.73;7.18;;;;;;;35.39;nan;97975.16;4871524;29;20082;-68
2023/08/31 10:47:06;;;;;;;24.52;6.30;;;;;;;35.37;nan;97977.47;4880096;29;20761;-68
2023/08/31 10:49:37;;;;;;;24.20;6.55;;;;;;;35.38;nan;97987.34;4875134;29;20052;-68
2023/08/31 10:52:18;;;;;;;27.50;6.97;;;;;;;35.37;nan;97980.22;4874569;29;20044;-67
2023/08/31 10:54:56;;;;;;;28.10;6.30;;;;;;;35.30;nan;97977.41;4874687;29;20147;-68
2023/08/31 10:57:31;;;;;;;21.40;6.50;;;;;;;35.21;nan;97982.38;4873608;29;20144;-68
2023/08/31 11:00:02;;;;;;;22.33;6.15;;;;;;;35.17;nan;97970.53;4871245;29;20077;-66
2023/08/31 11:02:46;;;;;;;27.58;6.30;;;;;;;35.14;nan;97968.50;4896268;29;20076;-65
2023/08/31 11:05:19;;;;;;;23.92;7.63;;;;;;;35.13;nan;97966.91;4880249;29;20053;-66
2023/08/31 11:07:56;;;;;;;28.52;7.70;;;;;;;35.14;nan;97968.50;4869081;29;20069;-66
2023/08/31 11:10:30;;;;;;;26.73;7.15;;;;;;;35.03;nan;97967.53;4878284;29;20045;-64
2023/08/31 11:13:00;;;;;;;28.90;6.75;;;;;;;35.00;nan;97971.03;4533934;29;10000612;-65
2023/08/31 11:15:30;;;;;;;24.10;5.95;;;;;;;34.94;nan;97967.00;4871283;29;20558;-68
2023/08/31 11:17:59;;;;;;;25.48;5.47;;;;;;;34.91;nan;97971.31;4879944;29;20060;-65
2023/08/31 11:20:31;;;;;;;24.85;5.93;;;;;;;34.88;nan;97972.03;4875204;29;20048;-66
2023/08/31 11:23:02;;;;;;;24.90;6.70;;;;;;;34.87;nan;97967.72;4883926;29;20060;-65
2023/08/31 11:25:35;;;;;;;23.88;5.97;;;;;;;34.84;nan;97973.13;4869147;29;20684;-65
2023/08/31 11:28:15;;;;;;;26.67;6.05;;;;;;;34.83;nan;97971.56;4881195;29;20132;-67
2023/08/31 11:30:46;;;;;;;20.75;5.95;;;;;;;34.78;nan;97971.88;4873108;29;20121;-67
2023/08/31 11:33:15;;;;;;;21.02;5.38;;;;;;;34.78;nan;97969.13;4882303;29;20240;-66
2023/08/31 11:35:45;;;;;;;24.50;6.18;;;;;;;34.69;nan;97963.88;4883949;29;20078;-68
2023/08/31 11:38:14;;;;;;;25.35;6.57;;;;;;;34.63;nan;97966.09;4886514;29;20052;-66
2023/08/31 11:40:44;;;;;;;16.85;5.65;;;;;;;34.58;nan;97960.91;4875047;29;20055;-65
2023/08/31 11:43:16;;;;;;;21.83;6.10;;;;;;;34.56;nan;97962.47;4881245;29;20068;-68
2023/08/31 11:45:46;;;;;;;25.35;6.18;;;;;;;34.59;nan;97961.72;4879290;29;20044;-69
2023/08/31 11:48:16;;;;;;;33.88;6.28;;;;;;;34.60;nan;97969.59;4875913;29;20048;-67
2023/08/31 11:50:46;;;;;;;28.42;7.18;;;;;;;34.62;nan;97964.50;4880552;29;20567;-65
2023/08/31 11:53:15;;;;;;;21.42;6.55;;;;;;;34.56;nan;97956.94;4879005;29;20044;-67
2023/08/31 11:55:53;;;;;;;28.58;7.38;;;;;;;34.47;nan;97959.97;4881422;29;20063;-66
2023/08/31 11:58:24;;;;;;;27.08;5.85;;;;;;;34.44;nan;97954.38;4876167;29;20704;-67
2023/08/31 12:01:03;;;;;;;24.27;6.68;;;;;;;34.34;nan;97955.81;4879888;29;20144;-69